Time;durP1;ratioP1;P1;durP2;ratioP2;P2;SDS_P1;SDS_P2;PMS_P1;PMS_P2;Temp;Humidity;BMP_temperature;BMP_pressure;BME280_temperature;BME280_humidity;BME280_pressure;Samples;Min_cycle;Max_cycle;Signal;HPM_P1;HPM_P2
2022/04/07 00:00:20;;;;;;;0.28;0.28;;;;;;;;;;1878887;75;26244;-44
2022/04/07 00:02:48;;;;;;;0.55;0.20;;;;;;;;;;1880875;74;26323;-44
2022/04/07 00:05:15;;;;;;;0.28;0.28;;;;;;;;;;1864145;75;26728;-44
2022/04/07 00:07:42;;;;;;;0.20;0.20;;;;;;;;;;1855672;76;26837;-39
2022/04/07 00:10:09;;;;;;;0.30;0.30;;;;;;;;;;1851161;75;26292;-40
2022/04/07 00:12:37;;;;;;;0.10;0.10;;;;;;;;;;1852065;76;26337;-38
2022/04/07 00:15:05;;;;;;;0.28;0.23;;;;;;;;;;1851394;76;26278;-33
2022/04/07 00:17:32;;;;;;;5.58;0.30;;;;;;;;;;1844136;76;25728;-34
2022/04/07 00:19:59;;;;;;;0.20;0.20;;;;;;;;;;1851455;76;26988;-32
2022/04/07 00:22:27;;;;;;;0.28;0.28;;;;;;;;;;1864920;75;26614;-44
2022/04/07 00:24:54;;;;;;;0.15;0.15;;;;;;;;;;1851710;76;26751;-37
2022/04/07 00:27:21;;;;;;;0.23;0.10;;;;;;;;;;1869213;76;26566;-40
2022/04/07 00:29:48;;;;;;;0.33;0.33;;;;;;;;;;1843371;76;26186;-44
2022/04/07 00:32:16;;;;;;;0.20;0.20;;;;;;;;;;1849393;76;26249;-35
2022/04/07 00:34:46;;;;;;;0.30;0.30;;;;;;;;;;1861747;76;26245;-40
2022/04/07 00:37:12;;;;;;;0.20;0.20;;;;;;;;;;1849289;76;26305;-35
2022/04/07 00:39:39;;;;;;;0.30;0.28;;;;;;;;;;1842393;76;26330;-35
2022/04/07 00:42:07;;;;;;;0.20;0.20;;;;;;;;;;1841731;76;26700;-38
2022/04/07 00:44:34;;;;;;;0.90;0.30;;;;;;;;;;1868918;76;26716;-33
2022/04/07 00:47:02;;;;;;;0.33;0.20;;;;;;;;;;1856546;75;26874;-40
2022/04/07 00:49:29;;;;;;;0.15;0.15;;;;;;;;;;1851104;76;26244;-38
2022/04/07 00:51:56;;;;;;;0.20;0.20;;;;;;;;;;1854727;76;26230;-37
2022/04/07 00:54:24;;;;;;;0.20;0.20;;;;;;;;;;1856668;75;26262;-32
2022/04/07 00:56:52;;;;;;;0.20;0.20;;;;;;;;;;1853586;76;26244;-37
2022/04/07 00:59:20;;;;;;;0.10;0.10;;;;;;;;;;1849839;76;26648;-36
2022/04/07 01:01:47;;;;;;;0.10;0.10;;;;;;;;;;1853454;76;26245;-37
2022/04/07 01:04:14;;;;;;;0.10;0.10;;;;;;;;;;1844662;76;26258;-35
2022/04/07 01:06:42;;;;;;;0.10;0.10;;;;;;;;;;1875832;74;26285;-44
2022/04/07 01:09:10;;;;;;;0.20;0.20;;;;;;;;;;1901986;74;26340;-33
2022/04/07 01:11:42;;;;;;;0.20;0.20;;;;;;;;;;1904395;74;26235;-39
2022/04/07 01:14:07;;;;;;;0.33;0.20;;;;;;;;;;1884606;75;26820;-38
2022/04/07 01:16:36;;;;;;;0.68;0.20;;;;;;;;;;1878774;75;26763;-38
2022/04/07 01:19:04;;;;;;;0.15;0.15;;;;;;;;;;1872895;75;26237;-38
2022/04/07 01:21:32;;;;;;;0.68;0.20;;;;;;;;;;1872954;75;26339;-36
2022/04/07 01:24:02;;;;;;;0.15;0.15;;;;;;;;;;1862321;74;26377;-34
2022/04/07 01:26:33;;;;;;;0.20;0.20;;;;;;;;;;1870319;75;26311;-34
2022/04/07 01:29:01;;;;;;;0.20;0.20;;;;;;;;;;1878134;75;26812;-36
2022/04/07 01:31:29;;;;;;;0.10;0.10;;;;;;;;;;1895411;75;26737;-32
2022/04/07 01:33:57;;;;;;;0.30;0.10;;;;;;;;;;1893965;74;26264;-37
2022/04/07 01:36:26;;;;;;;0.20;0.20;;;;;;;;;;1882593;75;26256;-42
2022/04/07 01:38:54;;;;;;;0.30;0.20;;;;;;;;;;1878148;75;26256;-37
2022/04/07 01:41:22;;;;;;;0.10;0.10;;;;;;;;;;1870377;75;26728;-36
2022/04/07 01:43:50;;;;;;;0.20;0.20;;;;;;;;;;1879752;75;26328;-34
2022/04/07 01:46:18;;;;;;;0.10;0.10;;;;;;;;;;1867256;74;26719;-33
2022/04/07 01:48:46;;;;;;;0.23;0.13;;;;;;;;;;1872300;75;26322;-42
2022/04/07 01:51:14;;;;;;;0.20;0.20;;;;;;;;;;1884682;75;26241;-40
2022/04/07 01:53:42;;;;;;;0.20;0.20;;;;;;;;;;1870867;74;26292;-34
2022/04/07 01:56:09;;;;;;;0.20;0.20;;;;;;;;;;1873327;75;26290;-37
2022/04/07 01:58:37;;;;;;;0.20;0.20;;;;;;;;;;1876073;74;26706;-34
2022/04/07 02:01:04;;;;;;;0.20;0.20;;;;;;;;;;1882596;74;26238;-33
2022/04/07 02:03:32;;;;;;;0.20;0.20;;;;;;;;;;1906011;74;26530;-35
2022/04/07 02:06:16;;;;;;;0.15;0.15;;;;;;;;;;1885375;75;26346;-32
2022/04/07 02:08:43;;;;;;;0.20;0.20;;;;;;;;;;1876019;74;26280;-34
2022/04/07 02:11:11;;;;;;;0.20;0.20;;;;;;;;;;1895394;75;26271;-35
2022/04/07 02:13:41;;;;;;;0.10;0.10;;;;;;;;;;1901199;75;26301;-33
2022/04/07 02:16:09;;;;;;;0.10;0.10;;;;;;;;;;1887293;75;26245;-33
2022/04/07 02:18:38;;;;;;;0.20;0.20;;;;;;;;;;1871266;75;26706;-38
2022/04/07 02:21:06;;;;;;;0.10;0.10;;;;;;;;;;1880849;74;26365;-42
2022/04/07 02:23:43;;;;;;;0.20;0.20;;;;;;;;;;1871991;74;26720;-35
2022/04/07 02:26:11;;;;;;;0.10;0.10;;;;;;;;;;1901746;74;26293;-39
2022/04/07 02:28:39;;;;;;;0.10;0.10;;;;;;;;;;1877694;75;26763;-41
2022/04/07 02:31:07;;;;;;;0.20;0.20;;;;;;;;;;1894862;75;26327;-37
2022/04/07 02:33:35;;;;;;;0.20;0.20;;;;;;;;;;1893517;74;26370;-37
2022/04/07 02:36:03;;;;;;;0.10;0.10;;;;;;;;;;1882655;75;26244;-37
2022/04/07 02:38:30;;;;;;;0.55;0.23;;;;;;;;;;1870018;75;26306;-38
2022/04/07 02:40:58;;;;;;;0.10;0.10;;;;;;;;;;1886305;75;26265;-37
2022/04/07 02:43:26;;;;;;;0.10;0.10;;;;;;;;;;1882758;74;26265;-33
2022/04/07 02:45:53;;;;;;;0.10;0.10;;;;;;;;;;1900327;74;26187;-35
2022/04/07 02:48:20;;;;;;;0.00;0.00;;;;;;;;;;1897275;74;26652;-37
2022/04/07 02:50:47;;;;;;;0.10;0.10;;;;;;;;;;1886092;75;26708;-41
2022/04/07 02:53:15;;;;;;;0.10;0.10;;;;;;;;;;1869843;75;26724;-36
2022/04/07 02:55:42;;;;;;;0.10;0.10;;;;;;;;;;1875800;74;26334;-32
2022/04/07 02:58:09;;;;;;;0.10;0.10;;;;;;;;;;1870090;75;26306;-42
2022/04/07 03:00:36;;;;;;;0.10;0.10;;;;;;;;;;1870091;75;26184;-35
2022/04/07 03:03:04;;;;;;;0.20;0.20;;;;;;;;;;1871921;75;26371;-39
2022/04/07 03:05:31;;;;;;;0.20;0.10;;;;;;;;;;1883780;75;26239;-34
2022/04/07 03:07:58;;;;;;;0.10;0.10;;;;;;;;;;1895115;75;26336;-36
2022/04/07 03:10:25;;;;;;;0.15;0.08;;;;;;;;;;1870387;75;26280;-35
2022/04/07 03:12:53;;;;;;;0.40;0.13;;;;;;;;;;1889851;74;26281;-36
2022/04/07 03:15:20;;;;;;;0.20;0.20;;;;;;;;;;1880421;75;26311;-34
2022/04/07 03:17:47;;;;;;;0.10;0.10;;;;;;;;;;1891693;74;27228;-39
2022/04/07 03:20:14;;;;;;;0.10;0.10;;;;;;;;;;1895580;75;26351;-36
2022/04/07 03:22:43;;;;;;;0.20;0.20;;;;;;;;;;1898367;75;26273;-41
2022/04/07 03:25:11;;;;;;;0.53;0.53;;;;;;;;;;1888434;74;26594;-41
2022/04/07 03:27:39;;;;;;;0.10;0.10;;;;;;;;;;1880175;75;26922;-33
2022/04/07 03:30:06;;;;;;;0.10;0.10;;;;;;;;;;1891328;74;26713;-34
2022/04/07 03:32:35;;;;;;;0.10;0.10;;;;;;;;;;1879085;75;26613;-37
2022/04/07 03:35:02;;;;;;;0.10;0.10;;;;;;;;;;1871957;75;26322;-32
2022/04/07 03:37:29;;;;;;;0.10;0.10;;;;;;;;;;1876748;75;27337;-37
2022/04/07 03:39:57;;;;;;;0.05;0.05;;;;;;;;;;1891056;74;26814;-36
2022/04/07 03:42:24;;;;;;;0.25;0.10;;;;;;;;;;1886371;74;26721;-38
2022/04/07 03:44:51;;;;;;;0.10;0.10;;;;;;;;;;1877962;75;26739;-39
2022/04/07 03:47:18;;;;;;;0.10;0.10;;;;;;;;;;1902451;75;26640;-33
2022/04/07 03:49:46;;;;;;;0.13;0.13;;;;;;;;;;1886204;75;26198;-37
2022/04/07 03:52:15;;;;;;;0.20;0.20;;;;;;;;;;1899944;74;25658;-33
2022/04/07 03:54:42;;;;;;;0.10;0.10;;;;;;;;;;1883774;74;26316;-38
2022/04/07 03:57:09;;;;;;;0.28;0.20;;;;;;;;;;1881286;75;26764;-34
2022/04/07 03:59:38;;;;;;;0.10;0.10;;;;;;;;;;1880617;75;26321;-34
2022/04/07 04:02:06;;;;;;;0.10;0.10;;;;;;;;;;1878244;74;26846;-41
2022/04/07 04:04:33;;;;;;;0.10;0.10;;;;;;;;;;1910544;74;25865;-40
2022/04/07 04:07:01;;;;;;;0.10;0.10;;;;;;;;;;1889542;74;26281;-33
2022/04/07 04:09:28;;;;;;;1.00;0.30;;;;;;;;;;1870805;75;26280;-38
2022/04/07 04:11:55;;;;;;;0.10;0.10;;;;;;;;;;1890114;75;26245;-35
2022/04/07 04:14:23;;;;;;;0.30;0.20;;;;;;;;;;1882984;75;26323;-38
2022/04/07 04:16:50;;;;;;;0.13;0.13;;;;;;;;;;1871923;74;26325;-39
2022/04/07 04:19:18;;;;;;;0.20;0.20;;;;;;;;;;1881975;75;26767;-32
2022/04/07 04:21:45;;;;;;;0.10;0.10;;;;;;;;;;1887225;75;26267;-45
2022/04/07 04:24:12;;;;;;;0.10;0.10;;;;;;;;;;1887598;74;26294;-38
2022/04/07 04:26:39;;;;;;;0.10;0.10;;;;;;;;;;1877761;74;26197;-38
2022/04/07 04:29:07;;;;;;;0.13;0.13;;;;;;;;;;1878474;75;26406;-40
2022/04/07 04:31:35;;;;;;;0.17;0.10;;;;;;;;;;1882439;75;26294;-33
2022/04/07 04:34:02;;;;;;;0.85;0.25;;;;;;;;;;1881713;74;26300;-34
2022/04/07 04:36:30;;;;;;;0.42;0.20;;;;;;;;;;1870084;75;26216;-41
2022/04/07 04:38:57;;;;;;;2.25;0.10;;;;;;;;;;1878073;74;26222;-37
2022/04/07 04:41:24;;;;;;;0.53;0.30;;;;;;;;;;1878089;75;26334;-41
2022/04/07 04:43:52;;;;;;;0.40;0.23;;;;;;;;;;1886939;75;26245;-41
2022/04/07 04:46:20;;;;;;;0.75;0.30;;;;;;;;;;1881954;75;26309;-33
2022/04/07 04:48:47;;;;;;;1.45;0.30;;;;;;;;;;1872790;75;26327;-45
2022/04/07 04:51:15;;;;;;;0.30;0.30;;;;;;;;;;1880276;74;26876;-44
2022/04/07 04:53:42;;;;;;;0.23;0.23;;;;;;;;;;1878428;75;26237;-39
2022/04/07 04:56:09;;;;;;;0.78;0.20;;;;;;;;;;1874543;75;26236;-38
2022/04/07 04:58:36;;;;;;;0.37;0.20;;;;;;;;;;1871765;75;26252;-34
2022/04/07 05:01:04;;;;;;;0.20;0.20;;;;;;;;;;1883483;74;26266;-44
2022/04/07 05:03:31;;;;;;;0.20;0.20;;;;;;;;;;1878938;75;26245;-37
2022/04/07 05:05:58;;;;;;;1.32;0.45;;;;;;;;;;1886925;75;26250;-37
2022/04/07 05:08:25;;;;;;;0.30;0.30;;;;;;;;;;1889568;75;25902;-42
2022/04/07 05:10:53;;;;;;;0.37;0.28;;;;;;;;;;1870012;75;26752;-43
2022/04/07 05:13:22;;;;;;;0.70;0.30;;;;;;;;;;1878791;74;26239;-40
2022/04/07 05:15:49;;;;;;;0.40;0.20;;;;;;;;;;1876668;75;26887;-42
2022/04/07 05:18:16;;;;;;;1.47;0.33;;;;;;;;;;1875647;74;26733;-43
2022/04/07 05:20:43;;;;;;;0.33;0.10;;;;;;;;;;1889210;75;26724;-32
2022/04/07 05:23:11;;;;;;;1.20;0.47;;;;;;;;;;1891176;74;26543;-39
2022/04/07 05:25:38;;;;;;;2.08;0.40;;;;;;;;;;1901156;74;26229;-32
2022/04/07 05:28:06;;;;;;;4.78;0.62;;;;;;;;;;1888943;74;26293;-40
2022/04/07 05:30:33;;;;;;;1.85;0.70;;;;;;;;;;1889888;75;26338;-34
2022/04/07 05:33:01;;;;;;;5.08;0.90;;;;;;;;;;1901642;74;26701;-38
2022/04/07 05:35:29;;;;;;;6.85;1.10;;;;;;;;;;1896733;74;26972;-40
2022/04/07 05:37:57;;;;;;;3.92;0.98;;;;;;;;;;1887558;75;26281;-45
2022/04/07 05:40:26;;;;;;;14.80;1.55;;;;;;;;;;1889782;75;26184;-35
2022/04/07 05:42:54;;;;;;;9.53;1.20;;;;;;;;;;1886953;75;26742;-33
2022/04/07 05:45:22;;;;;;;10.35;1.20;;;;;;;;;;1893828;74;26253;-37
2022/04/07 05:47:49;;;;;;;4.85;1.02;;;;;;;;;;1891337;74;26713;-39
2022/04/07 05:50:17;;;;;;;3.92;0.98;;;;;;;;;;1878841;75;26840;-44
2022/04/07 05:52:44;;;;;;;2.98;0.85;;;;;;;;;;1884974;75;26220;-35
2022/04/07 05:55:12;;;;;;;3.42;0.90;;;;;;;;;;1898462;75;26803;-33
2022/04/07 05:57:39;;;;;;;3.50;0.90;;;;;;;;;;1888028;75;26303;-41
2022/04/07 06:00:10;;;;;;;3.17;0.90;;;;;;;;;;1876019;74;26265;-39
2022/04/07 06:02:38;;;;;;;2.15;0.70;;;;;;;;;;1905503;74;26236;-39
2022/04/07 06:05:06;;;;;;;1.62;0.65;;;;;;;;;;1890769;75;26633;-42
2022/04/07 06:07:33;;;;;;;3.62;0.85;;;;;;;;;;1870299;75;25538;-35
2022/04/07 06:10:01;;;;;;;1.30;0.60;;;;;;;;;;1872762;74;26889;-36
2022/04/07 06:12:29;;;;;;;7.90;1.82;;;;;;;;;;1882428;75;26308;-36
2022/04/07 06:14:56;;;;;;;1.95;0.57;;;;;;;;;;1881192;75;26265;-38
2022/04/07 06:17:34;;;;;;;0.98;0.57;;;;;;;;;;1890598;75;26700;-35
2022/04/07 06:20:02;;;;;;;1.45;0.65;;;;;;;;;;1893747;75;26291;-35
2022/04/07 06:22:29;;;;;;;1.35;0.53;;;;;;;;;;1883902;74;26261;-43
2022/04/07 06:24:56;;;;;;;1.60;0.78;;;;;;;;;;1885932;74;26232;-41
2022/04/07 06:27:23;;;;;;;2.05;0.60;;;;;;;;;;1891227;75;26246;-36
2022/04/07 06:29:52;;;;;;;4.42;0.50;;;;;;;;;;1900754;75;26241;-35
2022/04/07 06:32:23;;;;;;;0.85;0.53;;;;;;;;;;1876160;75;26226;-43
2022/04/07 06:34:48;;;;;;;0.95;0.60;;;;;;;;;;1893169;74;26304;-41
2022/04/07 06:37:16;;;;;;;2.30;0.50;;;;;;;;;;1891592;75;26298;-33
2022/04/07 06:39:43;;;;;;;1.02;0.50;;;;;;;;;;1893906;74;26224;-34
2022/04/07 06:42:10;;;;;;;1.52;0.57;;;;;;;;;;1878722;75;26177;-35
2022/04/07 06:44:37;;;;;;;0.60;0.60;;;;;;;;;;1874695;74;26371;-34
2022/04/07 06:47:05;;;;;;;1.20;0.62;;;;;;;;;;1892546;74;26303;-33
2022/04/07 06:49:32;;;;;;;1.85;0.50;;;;;;;;;;1870144;75;26243;-35
2022/04/07 06:51:59;;;;;;;0.40;0.40;;;;;;;;;;1869834;75;26299;-38
2022/04/07 06:54:26;;;;;;;0.90;0.90;;;;;;;;;;1870031;75;26319;-35
2022/04/07 06:56:54;;;;;;;1.62;0.50;;;;;;;;;;1892362;74;26245;-36
2022/04/07 06:59:21;;;;;;;0.93;0.37;;;;;;;;;;1887528;75;26296;-41
2022/04/07 07:01:48;;;;;;;0.40;0.40;;;;;;;;;;1889602;75;26278;-35
2022/04/07 07:04:15;;;;;;;0.65;0.50;;;;;;;;;;1875608;75;26287;-33
2022/04/07 07:06:43;;;;;;;0.50;0.50;;;;;;;;;;1891015;75;26222;-37
2022/04/07 07:09:10;;;;;;;0.42;0.42;;;;;;;;;;1897795;74;26316;-33
2022/04/07 07:11:37;;;;;;;0.40;0.40;;;;;;;;;;1904736;74;26238;-39
2022/04/07 07:14:04;;;;;;;1.00;0.30;;;;;;;;;;1878435;75;26754;-35
2022/04/07 07:16:31;;;;;;;0.30;0.30;;;;;;;;;;1881995;75;26676;-39
2022/04/07 07:18:59;;;;;;;0.65;0.35;;;;;;;;;;1888208;74;26642;-40
2022/04/07 07:21:26;;;;;;;0.40;0.40;;;;;;;;;;1887123;75;26220;-47
2022/04/07 07:23:53;;;;;;;1.12;0.40;;;;;;;;;;1899311;74;26236;-42
2022/04/07 07:26:20;;;;;;;1.92;0.40;;;;;;;;;;1883831;74;26514;-40
2022/04/07 07:28:48;;;;;;;0.55;0.50;;;;;;;;;;1876970;75;26235;-44
2022/04/07 07:31:15;;;;;;;0.30;0.30;;;;;;;;;;1892899;74;26276;-35
2022/04/07 07:33:42;;;;;;;0.40;0.40;;;;;;;;;;1903168;74;26248;-44
2022/04/07 07:36:10;;;;;;;0.42;0.42;;;;;;;;;;1903255;75;26732;-36
2022/04/07 07:38:37;;;;;;;0.33;0.33;;;;;;;;;;1884437;74;26252;-42
2022/04/07 07:41:05;;;;;;;3.30;0.40;;;;;;;;;;1887207;74;26826;-41
2022/04/07 07:43:32;;;;;;;1.65;0.50;;;;;;;;;;1894434;74;26310;-43
2022/04/07 07:46:00;;;;;;;2.40;0.60;;;;;;;;;;1881794;74;27620;-38
2022/04/07 07:48:28;;;;;;;1.70;0.30;;;;;;;;;;1885332;74;26272;-41
2022/04/07 07:50:56;;;;;;;0.30;0.30;;;;;;;;;;1890842;74;26245;-44
2022/04/07 07:53:23;;;;;;;0.33;0.33;;;;;;;;;;1893865;74;26241;-42
2022/04/07 07:55:52;;;;;;;0.55;0.45;;;;;;;;;;1885402;74;26240;-37
2022/04/07 07:58:19;;;;;;;0.37;0.37;;;;;;;;;;1887330;75;26707;-34
2022/04/07 08:00:47;;;;;;;0.35;0.35;;;;;;;;;;1899372;74;26269;-43
2022/04/07 08:03:15;;;;;;;1.55;0.40;;;;;;;;;;1894626;74;26224;-43
2022/04/07 08:05:42;;;;;;;1.55;0.30;;;;;;;;;;1899998;74;26413;-39
2022/04/07 08:08:11;;;;;;;0.30;0.30;;;;;;;;;;1891956;74;26240;-39
2022/04/07 08:10:38;;;;;;;0.62;0.40;;;;;;;;;;1880014;73;26951;-41
2022/04/07 08:13:06;;;;;;;0.40;0.40;;;;;;;;;;1897425;74;26255;-46
2022/04/07 08:15:34;;;;;;;1.75;0.37;;;;;;;;;;1888147;74;26282;-46
2022/04/07 08:18:01;;;;;;;2.10;0.42;;;;;;;;;;1886194;74;26714;-49
2022/04/07 08:20:29;;;;;;;1.55;0.40;;;;;;;;;;1889162;74;26234;-46
2022/04/07 08:22:56;;;;;;;0.30;0.30;;;;;;;;;;1886940;74;26637;-41
2022/04/07 08:25:23;;;;;;;0.50;0.20;;;;;;;;;;1875240;74;26731;-39
2022/04/07 08:27:51;;;;;;;0.40;0.30;;;;;;;;;;1882726;74;26218;-40
2022/04/07 08:30:18;;;;;;;0.30;0.30;;;;;;;;;;1895896;75;26238;-37
2022/04/07 08:32:45;;;;;;;2.27;0.50;;;;;;;;;;1892236;74;26442;-45
2022/04/07 08:35:12;;;;;;;2.98;0.37;;;;;;;;;;1880699;74;26742;-38
2022/04/07 08:37:40;;;;;;;0.23;0.20;;;;;;;;;;1881147;74;26708;-44
2022/04/07 08:40:07;;;;;;;4.85;0.70;;;;;;;;;;1878804;74;27296;-39
2022/04/07 08:42:36;;;;;;;3.70;0.57;;;;;;;;;;1893578;74;26852;-37
2022/04/07 08:45:04;;;;;;;1.42;0.30;;;;;;;;;;1899618;74;26269;-37
2022/04/07 08:47:33;;;;;;;0.45;0.25;;;;;;;;;;1899307;75;26209;-39
2022/04/07 08:50:02;;;;;;;2.17;0.30;;;;;;;;;;1892107;74;26314;-38
2022/04/07 08:52:30;;;;;;;0.47;0.40;;;;;;;;;;1905010;74;26299;-49
2022/04/07 08:54:57;;;;;;;0.30;0.20;;;;;;;;;;1901639;74;26866;-39
2022/04/07 08:57:26;;;;;;;0.20;0.20;;;;;;;;;;1873233;75;26708;-38
2022/04/07 08:59:54;;;;;;;0.10;0.10;;;;;;;;;;1898225;74;26253;-33
2022/04/07 09:02:21;;;;;;;0.20;0.20;;;;;;;;;;1900393;74;26351;-38
2022/04/07 09:04:49;;;;;;;0.55;0.30;;;;;;;;;;1892980;74;26211;-41
2022/04/07 09:07:16;;;;;;;0.30;0.30;;;;;;;;;;1882520;74;26552;-42
2022/04/07 09:09:43;;;;;;;0.30;0.30;;;;;;;;;;1874442;73;26378;-35
2022/04/07 09:12:11;;;;;;;0.80;0.30;;;;;;;;;;1938495;73;26235;-39
2022/04/07 09:14:40;;;;;;;1.10;0.30;;;;;;;;;;1940425;73;26247;-42
2022/04/07 09:17:07;;;;;;;0.30;0.30;;;;;;;;;;1917709;73;26812;-47
2022/04/07 09:19:36;;;;;;;0.20;0.20;;;;;;;;;;1917138;73;26233;-36
2022/04/07 09:22:08;;;;;;;0.85;0.20;;;;;;;;;;1898785;75;27225;-38
2022/04/07 09:24:36;;;;;;;0.30;0.30;;;;;;;;;;1884658;73;26683;-35
2022/04/07 09:27:05;;;;;;;0.30;0.30;;;;;;;;;;1886061;73;26763;-37
2022/04/07 09:29:43;;;;;;;0.20;0.20;;;;;;;;;;1913156;73;26646;-36
2022/04/07 09:32:21;;;;;;;0.20;0.20;;;;;;;;;;1909583;73;26249;-36
2022/04/07 09:34:48;;;;;;;1.67;0.20;;;;;;;;;;1890125;75;26259;-36
2022/04/07 09:37:15;;;;;;;1.65;0.23;;;;;;;;;;1900143;73;26241;-35
2022/04/07 09:39:44;;;;;;;0.20;0.20;;;;;;;;;;1914573;75;26841;-34
2022/04/07 09:42:13;;;;;;;0.33;0.17;;;;;;;;;;1914899;73;26614;-35
2022/04/07 09:44:40;;;;;;;0.30;0.30;;;;;;;;;;1904930;73;26235;-39
2022/04/07 09:47:09;;;;;;;2.45;0.33;;;;;;;;;;1919149;73;26299;-41
2022/04/07 09:49:36;;;;;;;0.00;0.00;;;;;;;;;;1910198;73;26244;-35
2022/04/07 09:52:05;;;;;;;1.65;0.20;;;;;;;;;;1914020;75;26237;-39
2022/04/07 09:54:34;;;;;;;0.53;0.10;;;;;;;;;;1903054;75;26291;-35
2022/04/07 09:57:04;;;;;;;0.20;0.10;;;;;;;;;;1915015;75;26176;-47
2022/04/07 09:59:31;;;;;;;0.23;0.23;;;;;;;;;;1886839;74;26353;-36
2022/04/07 10:01:58;;;;;;;0.25;0.25;;;;;;;;;;1905803;75;26314;-41
2022/04/07 10:04:26;;;;;;;0.20;0.20;;;;;;;;;;1899295;75;26296;-45
2022/04/07 10:06:55;;;;;;;0.30;0.30;;;;;;;;;;1897813;75;26245;-41
2022/04/07 10:09:23;;;;;;;0.20;0.20;;;;;;;;;;1918635;73;26729;-35
2022/04/07 10:11:51;;;;;;;0.20;0.20;;;;;;;;;;1904497;74;26270;-43
2022/04/07 10:14:21;;;;;;;0.20;0.20;;;;;;;;;;1892273;75;27551;-34
2022/04/07 10:16:49;;;;;;;0.30;0.20;;;;;;;;;;1903004;74;26223;-41
2022/04/07 10:19:17;;;;;;;0.13;0.13;;;;;;;;;;1888742;75;26256;-49
2022/04/07 10:21:48;;;;;;;0.20;0.20;;;;;;;;;;1879968;75;26322;-42
2022/04/07 10:24:29;;;;;;;0.20;0.20;;;;;;;;;;1886724;74;26260;-42
2022/04/07 10:26:57;;;;;;;0.35;0.35;;;;;;;;;;1890536;74;26226;-36
2022/04/07 10:29:25;;;;;;;0.33;0.33;;;;;;;;;;1885687;75;26280;-43
2022/04/07 10:32:10;;;;;;;1.37;0.40;;;;;;;;;;1893150;75;26227;-39
2022/04/07 10:34:42;;;;;;;0.40;0.40;;;;;;;;;;1895139;74;26266;-45
2022/04/07 10:37:10;;;;;;;0.37;0.37;;;;;;;;;;1888866;74;26311;-43
2022/04/07 10:39:41;;;;;;;3.42;1.15;;;;;;;;;;1876467;75;26251;-43
2022/04/07 10:42:09;;;;;;;0.57;0.30;;;;;;;;;;1881934;75;26855;-40
2022/04/07 10:44:38;;;;;;;1.25;0.30;;;;;;;;;;1882272;75;26230;-37
2022/04/07 10:47:06;;;;;;;0.40;0.40;;;;;;;;;;1889725;74;26558;-39
2022/04/07 10:49:33;;;;;;;0.35;0.35;;;;;;;;;;1883006;75;26455;-37
2022/04/07 10:52:07;;;;;;;0.30;0.30;;;;;;;;;;1890788;75;26339;-44
2022/04/07 10:54:30;;;;;;;0.20;0.20;;;;;;;;;;1882989;75;26861;-40
2022/04/07 10:57:04;;;;;;;1.27;0.30;;;;;;;;;;1889740;74;26300;-39
2022/04/07 10:59:35;;;;;;;0.25;0.25;;;;;;;;;;1890310;75;26288;-35
2022/04/07 11:02:01;;;;;;;0.40;0.40;;;;;;;;;;1876605;75;26824;-37
2022/04/07 11:04:29;;;;;;;0.30;0.20;;;;;;;;;;1900924;75;26257;-40
2022/04/07 11:07:16;;;;;;;4.50;0.40;;;;;;;;;;1896537;75;26228;-38
2022/04/07 11:09:48;;;;;;;0.62;0.50;;;;;;;;;;1884107;74;27014;-43
2022/04/07 11:12:20;;;;;;;1.90;0.60;;;;;;;;;;1866258;75;26280;-37
2022/04/07 11:14:49;;;;;;;4.47;0.93;;;;;;;;;;1848959;76;26332;-45
2022/04/07 11:17:33;;;;;;;3.17;0.68;;;;;;;;;;1852507;76;26246;-41
2022/04/07 11:20:08;;;;;;;3.30;1.20;;;;;;;;;;1856407;76;26777;-39
2022/04/07 11:22:45;;;;;;;8.95;1.30;;;;;;;;;;1856220;76;26625;-44
2022/04/07 11:25:25;;;;;;;0.28;0.20;;;;;;;;;;1862473;76;25203;-39
2022/04/07 11:28:10;;;;;;;0.75;0.40;;;;;;;;;;1873187;75;26222;-43
2022/04/07 11:30:46;;;;;;;3.22;0.40;;;;;;;;;;1890449;75;26928;-42
2022/04/07 11:33:14;;;;;;;2.87;0.50;;;;;;;;;;1844232;76;28619;-50
2022/04/07 11:35:42;;;;;;;0.42;0.20;;;;;;;;;;1861639;76;26472;-43
2022/04/07 11:38:10;;;;;;;1.02;0.30;;;;;;;;;;1853572;75;26760;-39
2022/04/07 11:40:37;;;;;;;0.30;0.30;;;;;;;;;;1864652;75;26271;-44
2022/04/07 11:43:04;;;;;;;0.60;0.40;;;;;;;;;;1848502;76;26340;-48
2022/04/07 11:45:32;;;;;;;0.30;0.30;;;;;;;;;;1871495;75;26693;-46
2022/04/07 11:48:01;;;;;;;0.50;0.23;;;;;;;;;;1846143;76;26241;-53
2022/04/07 11:50:28;;;;;;;0.20;0.20;;;;;;;;;;1851973;76;26227;-34
2022/04/07 11:52:56;;;;;;;0.45;0.35;;;;;;;;;;1855426;76;26225;-35
2022/04/07 11:55:30;;;;;;;2.30;0.28;;;;;;;;;;1853270;76;26221;-36
2022/04/07 11:58:00;;;;;;;0.50;0.50;;;;;;;;;;1867849;75;26379;-42
2022/04/07 12:00:31;;;;;;;0.20;0.20;;;;;;;;;;1850779;76;26304;-37
2022/04/07 12:02:59;;;;;;;0.50;0.20;;;;;;;;;;1845758;76;26724;-39
2022/04/07 12:05:27;;;;;;;0.30;0.30;;;;;;;;;;1869598;76;26234;-39
2022/04/07 12:07:55;;;;;;;0.28;0.28;;;;;;;;;;1863019;76;26708;-57
2022/04/07 12:10:24;;;;;;;0.20;0.20;;;;;;;;;;1851949;76;26967;-50
2022/04/07 12:12:51;;;;;;;1.40;0.23;;;;;;;;;;1887643;74;26256;-43
2022/04/07 12:15:19;;;;;;;0.30;0.30;;;;;;;;;;1896678;74;26167;-39
2022/04/07 12:18:02;;;;;;;0.65;0.30;;;;;;;;;;1890227;74;26206;-43
2022/04/07 12:20:30;;;;;;;0.20;0.20;;;;;;;;;;1884569;74;26224;-36
2022/04/07 12:23:04;;;;;;;0.30;0.30;;;;;;;;;;1879712;74;27469;-40
2022/04/07 12:25:31;;;;;;;2.05;0.20;;;;;;;;;;1894703;74;26873;-55
2022/04/07 12:28:09;;;;;;;0.65;0.20;;;;;;;;;;1883679;74;26311;-39
2022/04/07 12:30:44;;;;;;;0.30;0.30;;;;;;;;;;1897069;74;26315;-50
2022/04/07 12:33:11;;;;;;;1.00;0.30;;;;;;;;;;1905622;75;26767;-41
2022/04/07 12:35:46;;;;;;;0.20;0.20;;;;;;;;;;1881005;74;26632;-40
2022/04/07 12:38:13;;;;;;;0.20;0.20;;;;;;;;;;1901382;75;26336;-54
2022/04/07 12:40:40;;;;;;;0.10;0.10;;;;;;;;;;1893120;74;26309;-46
2022/04/07 12:43:08;;;;;;;0.30;0.30;;;;;;;;;;1898631;74;26320;-43
2022/04/07 12:45:35;;;;;;;0.25;0.25;;;;;;;;;;1903976;74;26232;-47
2022/04/07 12:48:04;;;;;;;0.15;0.15;;;;;;;;;;1900470;74;26359;-44
2022/04/07 12:50:33;;;;;;;0.20;0.20;;;;;;;;;;1901838;74;26307;-51
2022/04/07 12:53:01;;;;;;;0.25;0.25;;;;;;;;;;1916369;74;26834;-41
2022/04/07 12:55:38;;;;;;;0.15;0.15;;;;;;;;;;1884581;74;26237;-39
2022/04/07 12:58:08;;;;;;;0.10;0.10;;;;;;;;;;1900710;74;26277;-41
2022/04/07 13:00:35;;;;;;;0.10;0.10;;;;;;;;;;1895156;75;26254;-48
2022/04/07 13:03:05;;;;;;;0.20;0.20;;;;;;;;;;1893767;74;26535;-50
2022/04/07 13:05:35;;;;;;;0.20;0.20;;;;;;;;;;1889215;74;26244;-53
2022/04/07 13:08:03;;;;;;;0.20;0.20;;;;;;;;;;1888228;74;26852;-56
2022/04/07 13:10:31;;;;;;;0.23;0.23;;;;;;;;;;1903798;74;26363;-49
2022/04/07 13:12:59;;;;;;;0.20;0.20;;;;;;;;;;1892932;74;26256;-49
2022/04/07 13:15:27;;;;;;;0.33;0.30;;;;;;;;;;1881104;74;26323;-56
2022/04/07 13:17:54;;;;;;;0.20;0.20;;;;;;;;;;1890920;75;26824;-49
2022/04/07 13:20:21;;;;;;;0.20;0.20;;;;;;;;;;1883821;74;26733;-47
2022/04/07 13:22:49;;;;;;;0.20;0.20;;;;;;;;;;1884229;74;26695;-42
2022/04/07 13:25:16;;;;;;;0.20;0.20;;;;;;;;;;1880852;74;26206;-39
2022/04/07 13:27:43;;;;;;;0.30;0.30;;;;;;;;;;1890417;74;26288;-51
2022/04/07 13:30:11;;;;;;;0.20;0.20;;;;;;;;;;1884629;74;26597;-45
2022/04/07 13:32:38;;;;;;;0.17;0.17;;;;;;;;;;1891442;74;26740;-41
2022/04/07 13:35:06;;;;;;;0.20;0.20;;;;;;;;;;1887620;74;26737;-46
2022/04/07 13:37:33;;;;;;;0.40;0.20;;;;;;;;;;1896330;74;26677;-39
2022/04/07 13:40:01;;;;;;;2.10;0.23;;;;;;;;;;1894505;74;26873;-41
2022/04/07 13:42:29;;;;;;;0.10;0.10;;;;;;;;;;1880949;75;26770;-40
2022/04/07 13:44:57;;;;;;;0.20;0.20;;;;;;;;;;1881376;75;26254;-48
2022/04/07 13:47:24;;;;;;;0.75;0.30;;;;;;;;;;1884008;75;26511;-48
2022/04/07 13:49:51;;;;;;;0.72;0.40;;;;;;;;;;1887752;74;26244;-42
2022/04/07 13:52:19;;;;;;;0.23;0.23;;;;;;;;;;1880648;75;26244;-51
2022/04/07 13:54:46;;;;;;;0.37;0.37;;;;;;;;;;1886979;75;26276;-45
2022/04/07 13:57:13;;;;;;;0.40;0.40;;;;;;;;;;1878236;75;26253;-48
2022/04/07 13:59:41;;;;;;;0.80;0.60;;;;;;;;;;1896134;74;25862;-52
2022/04/07 14:02:08;;;;;;;1.45;0.50;;;;;;;;;;1886436;74;26298;-52
2022/04/07 14:04:36;;;;;;;12.90;0.90;;;;;;;;;;1881952;74;26270;-48
2022/04/07 14:07:04;;;;;;;11.53;1.20;;;;;;;;;;1891200;74;26867;-46
2022/04/07 14:09:32;;;;;;;4.65;0.72;;;;;;;;;;1882910;74;26257;-38
2022/04/07 14:12:00;;;;;;;6.00;0.90;;;;;;;;;;1882962;74;26320;-45
2022/04/07 14:14:28;;;;;;;5.42;0.75;;;;;;;;;;1894237;74;26221;-42
2022/04/07 14:16:55;;;;;;;3.35;0.90;;;;;;;;;;1887711;74;26651;-39
2022/04/07 14:19:23;;;;;;;2.05;0.50;;;;;;;;;;1883525;75;26306;-53
2022/04/07 14:21:51;;;;;;;6.03;0.60;;;;;;;;;;1890502;75;26195;-42
2022/04/07 14:24:18;;;;;;;4.03;0.60;;;;;;;;;;1891418;74;26157;-36
2022/04/07 14:26:45;;;;;;;2.15;0.50;;;;;;;;;;1887570;75;26307;-45
2022/04/07 14:29:13;;;;;;;2.25;0.60;;;;;;;;;;1890806;75;26645;-40
2022/04/07 14:31:40;;;;;;;3.05;0.30;;;;;;;;;;1886486;75;26874;-37
2022/04/07 14:34:07;;;;;;;1.55;0.37;;;;;;;;;;1896649;75;26704;-43
2022/04/07 14:36:35;;;;;;;1.65;0.55;;;;;;;;;;1891173;74;26332;-46
2022/04/07 14:39:02;;;;;;;1.52;0.33;;;;;;;;;;1899653;75;26767;-49
2022/04/07 14:41:30;;;;;;;0.88;0.25;;;;;;;;;;1899452;75;26214;-44
2022/04/07 14:43:57;;;;;;;1.42;0.30;;;;;;;;;;1897620;75;26233;-39
2022/04/07 14:46:24;;;;;;;2.70;0.33;;;;;;;;;;1902212;74;26232;-50
2022/04/07 14:48:52;;;;;;;0.30;0.30;;;;;;;;;;1897059;74;26796;-45